createdAt,value
2023-03-28T00:00:00.979Z,93750.60
2023-03-28T00:02:28.696Z,93752.20
2023-03-28T00:04:56.419Z,93753.80
2023-03-28T00:07:26.343Z,93749.80
2023-03-28T00:09:53.974Z,93752.60
2023-03-28T00:12:21.942Z,93751.20
2023-03-28T00:14:54.520Z,93752.60
2023-03-28T00:17:23.736Z,93754.20
2023-03-28T00:19:53.876Z,93754.60
2023-03-28T00:22:22.608Z,93752.80
2023-03-28T00:24:51.024Z,93756.00
2023-03-28T00:27:19.168Z,93754.80
2023-03-28T00:29:50.125Z,93751.20
2023-03-28T00:32:17.724Z,93754.80
2023-03-28T00:34:45.516Z,93749.60
2023-03-28T00:37:17.345Z,93749.00
2023-03-28T00:39:50.001Z,93750.00
2023-03-28T00:42:17.695Z,93750.80
2023-03-28T00:44:45.418Z,93755.80
2023-03-28T00:47:13.350Z,93756.20
2023-03-28T00:49:40.874Z,93752.00
2023-03-28T00:52:08.860Z,93749.40
2023-03-28T00:54:40.324Z,93746.20
2023-03-28T00:57:08.246Z,93747.60
2023-03-28T00:59:36.595Z,93753.20
2023-03-28T01:02:04.290Z,93756.60
2023-03-28T01:04:33.650Z,93757.80
2023-03-28T01:07:01.624Z,93759.60
2023-03-28T01:09:29.659Z,93758.20
2023-03-28T01:11:57.726Z,93755.40
2023-03-28T01:14:26.429Z,93756.00
2023-03-28T01:16:56.396Z,93753.40
2023-03-28T01:19:29.035Z,93756.60
2023-03-28T01:21:56.767Z,93755.20
2023-03-28T01:24:25.177Z,93754.20
2023-03-28T01:26:52.920Z,93748.80
2023-03-28T01:29:20.800Z,93752.40
2023-03-28T01:31:48.887Z,93753.00
2023-03-28T01:34:20.198Z,93746.20
2023-03-28T01:36:48.365Z,93749.80
2023-03-28T01:39:16.702Z,93745.80
2023-03-28T01:41:44.216Z,93743.60
2023-03-28T01:44:11.850Z,93746.40
2023-03-28T01:46:39.954Z,93748.20
2023-03-28T01:49:08.896Z,93751.20
2023-03-28T01:51:36.539Z,93751.80
2023-03-28T01:54:04.317Z,93749.00
2023-03-28T01:56:31.883Z,93748.40
2023-03-28T01:58:59.902Z,93752.80
2023-03-28T02:01:32.484Z,93748.00
2023-03-28T02:04:00.373Z,93745.40
2023-03-28T02:06:28.137Z,93748.80
2023-03-28T02:08:55.825Z,93749.60
2023-03-28T02:11:23.748Z,93746.20
2023-03-28T02:13:51.301Z,93743.60
2023-03-28T02:16:21.306Z,93743.20
2023-03-28T02:18:49.296Z,93748.80
2023-03-28T02:21:16.916Z,93740.40
2023-03-28T02:23:44.856Z,93745.60
2023-03-28T02:26:13.502Z,93746.80
2023-03-28T02:28:43.180Z,93751.80
2023-03-28T02:31:11.305Z,93757.00
2023-03-28T02:33:39.119Z,93754.80
2023-03-28T02:36:06.702Z,93759.40
2023-03-28T02:38:34.639Z,93754.60
2023-03-28T02:41:02.699Z,93761.20
2023-03-28T02:43:30.357Z,93763.20
2023-03-28T02:45:58.449Z,93769.60
2023-03-28T02:48:26.491Z,93767.00
2023-03-28T02:50:55.080Z,93767.20
2023-03-28T02:53:27.501Z,93771.40
2023-03-28T02:55:55.790Z,93774.40
2023-03-28T02:58:23.938Z,93779.20
2023-03-28T03:00:51.559Z,93777.80
2023-03-28T03:03:20.338Z,93777.80
2023-03-28T03:05:48.514Z,93779.40
2023-03-28T03:08:17.060Z,93777.60
2023-03-28T03:10:44.587Z,93776.40
2023-03-28T03:13:12.588Z,93771.40
2023-03-28T03:15:41.566Z,93771.20
2023-03-28T03:18:11.249Z,93773.40
2023-03-28T03:20:41.267Z,93773.80
2023-03-28T03:23:11.126Z,93772.60
2023-03-28T03:25:38.834Z,93762.00
2023-03-28T03:28:06.448Z,93768.00
2023-03-28T03:30:34.120Z,93762.80
2023-03-28T03:33:16.858Z,93762.60
2023-03-28T03:35:49.278Z,93756.40
2023-03-28T03:38:17.006Z,93749.00
2023-03-28T03:40:44.745Z,93746.40
2023-03-28T03:43:12.281Z,93751.60
2023-03-28T03:45:41.545Z,93748.60
2023-03-28T03:48:11.865Z,93750.00
2023-03-28T03:50:41.121Z,93754.60
2023-03-28T03:53:09.380Z,93748.80
2023-03-28T03:55:36.875Z,93745.40
2023-03-28T03:58:04.768Z,93750.20
2023-03-28T04:00:32.532Z,93749.40
2023-03-28T04:03:01.209Z,93752.40
2023-03-28T04:05:28.960Z,93757.00
2023-03-28T04:07:59.404Z,93765.80
2023-03-28T04:10:29.768Z,93759.40
2023-03-28T04:12:57.466Z,93762.00
2023-03-28T04:15:30.821Z,93755.00
2023-03-28T04:17:58.570Z,93757.00
2023-03-28T04:20:29.938Z,93759.00
2023-03-28T04:23:01.022Z,93752.00
2023-03-28T04:25:30.050Z,93751.40
2023-03-28T04:28:02.017Z,93748.80
2023-03-28T04:30:33.496Z,93752.80
2023-03-28T04:33:02.537Z,93750.80
2023-03-28T04:38:20.381Z,93746.00
2023-03-28T04:40:55.400Z,93745.00
2023-03-28T04:43:23.057Z,93744.80
2023-03-28T04:45:51.356Z,93745.20
2023-03-28T04:48:19.102Z,93741.40
2023-03-28T04:50:48.052Z,93747.00
2023-03-28T04:53:17.761Z,93750.60
2023-03-28T04:55:49.391Z,93743.20
2023-03-28T04:58:17.465Z,93752.40
2023-03-28T05:00:46.356Z,93753.00
2023-03-28T05:03:21.997Z,93750.80
2023-03-28T05:05:50.225Z,93752.60
2023-03-28T05:08:18.308Z,93752.80
2023-03-28T05:10:47.133Z,93756.20
2023-03-28T05:13:14.944Z,93751.40
2023-03-28T05:15:42.618Z,93754.20
2023-03-28T05:18:11.288Z,93753.80
2023-03-28T05:20:39.897Z,93761.60
2023-03-28T05:23:07.429Z,93761.00
2023-03-28T05:25:35.170Z,93765.40
2023-03-28T05:28:05.686Z,93764.20
2023-03-28T05:30:36.323Z,93765.40
2023-03-28T05:33:04.435Z,93761.20
2023-03-28T05:35:32.248Z,93766.60
2023-03-28T05:38:00.101Z,93760.40
2023-03-28T05:40:28.220Z,93763.40
2023-03-28T05:42:57.979Z,93760.00
2023-03-28T05:45:27.185Z,93756.00
2023-03-28T05:47:57.710Z,93755.00
2023-03-28T05:50:26.444Z,93751.80
2023-03-28T05:52:55.389Z,93752.80
2023-03-28T05:55:25.309Z,93746.80
2023-03-28T05:57:55.764Z,93745.80
2023-03-28T06:00:24.480Z,93749.40
2023-03-28T06:02:52.601Z,93750.80
2023-03-28T06:05:22.735Z,93748.60
2023-03-28T06:07:57.536Z,93742.20
2023-03-28T06:10:45.027Z,93745.00
2023-03-28T06:13:29.552Z,93744.00
2023-03-28T06:16:05.253Z,93738.00
2023-03-28T06:18:38.680Z,93741.40
2023-03-28T06:21:07.725Z,93745.80
2023-03-28T06:23:36.318Z,93748.40
2023-03-28T06:26:06.915Z,93750.40
2023-03-28T06:28:37.856Z,93752.80
2023-03-28T06:31:07.652Z,93753.20
2023-03-28T06:33:47.205Z,93752.20
2023-03-28T06:36:47.716Z,93751.60
2023-03-28T06:39:16.097Z,93747.60
2023-03-28T06:41:46.924Z,93750.80
2023-03-28T06:44:17.521Z,93759.60
2023-03-28T06:46:57.501Z,93762.00
2023-03-28T06:49:31.072Z,93762.80
2023-03-28T06:52:23.414Z,93759.80
2023-03-28T06:55:12.579Z,93764.40
2023-03-28T06:57:41.386Z,93766.20
2023-03-28T07:00:09.903Z,93767.60
2023-03-28T07:02:43.418Z,93771.00
2023-03-28T07:05:40.668Z,93776.20
2023-03-28T07:08:08.998Z,93779.40
2023-03-28T07:11:00.054Z,93784.00
2023-03-28T07:13:32.978Z,93776.80
2023-03-28T07:16:11.071Z,93782.80
2023-03-28T07:18:49.930Z,93792.20
2023-03-28T07:21:27.195Z,93797.60
2023-03-28T07:23:55.984Z,93799.20
2023-03-28T07:27:26.152Z,93803.60
2023-03-28T07:29:57.313Z,93810.20
2023-03-28T07:35:16.533Z,93817.20
2023-03-28T07:38:04.177Z,93813.60
2023-03-28T07:40:45.582Z,93812.40
2023-03-28T07:43:14.105Z,93813.40
2023-03-28T07:46:04.174Z,93810.40
2023-03-28T07:48:42.300Z,93807.00
2023-03-28T07:51:12.559Z,93809.60
2023-03-28T07:53:42.370Z,93815.60
2023-03-28T07:56:15.641Z,93820.20
2023-03-28T07:58:44.974Z,93816.20
2023-03-28T08:01:30.210Z,93820.00
2023-03-28T08:03:59.915Z,93818.60
2023-03-28T08:06:32.345Z,93820.80
2023-03-28T08:09:00.892Z,93825.00
2023-03-28T08:11:30.357Z,93825.40
2023-03-28T08:14:11.409Z,93825.60
2023-03-28T08:16:44.436Z,93825.80
2023-03-28T08:19:35.437Z,93828.20
2023-03-28T08:22:11.807Z,93827.80
2023-03-28T08:25:01.890Z,93833.40
2023-03-28T08:27:41.288Z,93836.20
2023-03-28T08:30:16.780Z,93842.80
2023-03-28T08:32:48.311Z,93851.40
2023-03-28T08:35:18.338Z,93859.00
2023-03-28T08:37:51.479Z,93863.20
2023-03-28T08:40:22.609Z,93901.60
2023-03-28T08:43:03.981Z,93919.40
2023-03-28T08:45:40.030Z,93935.20
2023-03-28T08:48:17.230Z,93950.40
2023-03-28T08:50:51.389Z,93966.00
2023-03-28T08:53:29.565Z,93960.00
2023-03-28T08:56:02.764Z,93944.60
2023-03-28T08:58:33.261Z,93942.00
2023-03-28T09:01:01.466Z,93941.40
2023-03-28T09:03:30.674Z,93941.00
2023-03-28T09:06:00.828Z,93940.80
2023-03-28T09:08:30.486Z,93955.00
2023-03-28T09:10:58.383Z,93962.00
2023-03-28T09:13:26.687Z,93955.00
2023-03-28T09:15:55.153Z,93961.20
2023-03-28T09:18:23.972Z,93958.40
2023-03-28T09:20:51.668Z,93961.00
2023-03-28T09:23:22.094Z,93956.60
2023-03-28T09:25:52.851Z,93970.60
2023-03-28T09:28:30.134Z,93975.20
2023-03-28T09:31:00.823Z,93977.40
2023-03-28T09:33:41.409Z,93984.80
2023-03-28T09:36:49.380Z,93984.00
2023-03-28T09:39:20.341Z,93986.80
2023-03-28T09:41:53.187Z,93986.20
2023-03-28T09:44:22.152Z,93987.80
2023-03-28T09:46:51.009Z,93981.60
2023-03-28T09:49:20.167Z,93966.20
2023-03-28T09:52:08.275Z,93973.40
2023-03-28T09:54:36.714Z,93976.00
2023-03-28T09:57:04.739Z,93970.20
2023-03-28T09:59:37.374Z,93974.80
2023-03-28T10:02:07.497Z,93980.40
2023-03-28T10:04:37.215Z,93984.80
2023-03-28T10:07:37.822Z,93992.60
2023-03-28T10:10:14.891Z,93990.60
2023-03-28T10:12:43.796Z,93981.80
2023-03-28T10:15:12.010Z,93988.60
2023-03-28T10:17:40.281Z,94001.20
2023-03-28T10:20:12.703Z,94001.60
2023-03-28T10:22:43.107Z,93986.20
2023-03-28T10:25:15.723Z,93992.20
2023-03-28T10:28:03.496Z,93998.80
2023-03-28T10:30:38.102Z,94001.40
2023-03-28T10:33:07.141Z,94002.40
2023-03-28T10:35:35.117Z,94015.60
2023-03-28T10:38:03.855Z,94017.00
2023-03-28T10:40:33.873Z,94003.80
2023-03-28T10:43:05.524Z,94005.80
2023-03-28T10:45:34.939Z,94010.80
2023-03-28T10:48:04.933Z,94021.40
2023-03-28T10:50:36.584Z,94025.60
2023-03-28T10:53:04.794Z,94039.80
2023-03-28T10:55:46.759Z,94049.00
2023-03-28T10:58:27.996Z,94042.40
2023-03-28T11:01:00.500Z,94038.40
2023-03-28T11:03:33.002Z,94041.60
2023-03-28T11:06:09.554Z,94046.60
2023-03-28T11:08:39.538Z,94041.00
2023-03-28T11:11:10.304Z,94053.20
2023-03-28T11:13:40.876Z,94052.80
2023-03-28T11:16:10.080Z,94060.80
2023-03-28T11:18:40.031Z,94061.00
2023-03-28T11:21:10.538Z,94063.00
2023-03-28T11:23:41.255Z,94062.60
2023-03-28T11:26:22.232Z,94054.40
2023-03-28T11:28:55.323Z,94049.20
2023-03-28T11:31:26.149Z,94050.40
2023-03-28T11:33:56.320Z,94044.60
2023-03-28T11:36:29.866Z,94048.00
2023-03-28T11:38:58.273Z,94050.20
2023-03-28T11:41:26.210Z,94046.60
2023-03-28T11:43:54.941Z,94051.20
2023-03-28T11:46:29.012Z,94061.40
2023-03-28T11:48:57.816Z,94066.60
2023-03-28T11:51:28.712Z,94082.80
2023-03-28T11:53:58.135Z,94085.80
2023-03-28T11:56:36.139Z,94093.00
2023-03-28T11:59:05.455Z,94093.00
2023-03-28T12:01:33.711Z,94097.60
2023-03-28T12:04:04.483Z,94095.80
2023-03-28T12:06:52.115Z,94103.40
2023-03-28T12:09:29.278Z,94110.40
2023-03-28T12:11:58.905Z,94102.60
2023-03-28T12:14:27.673Z,94102.40
2023-03-28T12:17:00.815Z,94104.20
2023-03-28T12:19:32.065Z,94099.40
2023-03-28T12:22:02.684Z,94104.40
2023-03-28T12:24:36.589Z,94109.40
2023-03-28T12:27:07.879Z,94115.40
2023-03-28T12:29:43.036Z,94109.00
2023-03-28T12:32:11.673Z,94105.40
2023-03-28T12:34:41.267Z,94115.00
2023-03-28T12:37:12.218Z,94115.80
2023-03-28T12:39:43.675Z,94113.80
2023-03-28T12:42:12.643Z,94109.60
2023-03-28T12:44:44.240Z,94111.60
2023-03-28T12:47:14.538Z,94100.20
2023-03-28T12:49:44.098Z,94105.00
2023-03-28T12:52:13.067Z,94103.40
2023-03-28T12:54:41.646Z,94107.40
2023-03-28T12:57:18.913Z,94101.40
2023-03-28T12:59:53.479Z,94100.60
2023-03-28T13:02:22.441Z,94094.00
2023-03-28T13:04:53.261Z,94085.60
2023-03-28T13:07:23.603Z,94091.00
2023-03-28T13:09:52.081Z,94095.60
2023-03-28T13:12:21.211Z,94095.40
2023-03-28T13:14:50.248Z,94093.80
2023-03-28T13:17:23.375Z,94086.80
2023-03-28T13:19:54.235Z,94098.00
2023-03-28T13:22:24.750Z,94099.60
2023-03-28T13:24:53.615Z,94107.20
2023-03-28T13:27:21.804Z,94117.80
2023-03-28T13:29:52.900Z,94121.40
2023-03-28T13:32:32.047Z,94132.20
2023-03-28T13:35:06.305Z,94138.80
2023-03-28T13:37:37.498Z,94156.80
2023-03-28T13:40:10.286Z,94158.00
2023-03-28T13:42:43.302Z,94159.20
2023-03-28T13:45:12.222Z,94167.20
2023-03-28T13:47:41.835Z,94153.40
2023-03-28T13:50:29.380Z,94158.80
2023-03-28T13:52:57.329Z,94152.20
2023-03-28T13:55:29.280Z,94157.60
2023-03-28T13:57:58.381Z,94156.60
2023-03-28T14:00:34.229Z,94154.80
2023-03-28T14:03:04.331Z,94156.60
2023-03-28T14:05:43.511Z,94160.40
2023-03-28T14:08:16.753Z,94170.80
2023-03-28T14:10:45.151Z,94170.40
2023-03-28T14:13:13.005Z,94171.80
2023-03-28T14:15:45.550Z,94179.00
2023-03-28T14:18:15.367Z,94190.80
2023-03-28T14:20:44.612Z,94200.60
2023-03-28T14:23:17.018Z,94206.40
2023-03-28T14:25:50.144Z,94220.20
2023-03-28T14:28:20.561Z,94221.60
2023-03-28T14:30:48.563Z,94224.40
2023-03-28T14:33:19.522Z,94227.40
2023-03-28T14:35:48.384Z,94230.60
2023-03-28T14:38:19.015Z,94224.20
2023-03-28T14:40:47.049Z,94229.20
2023-03-28T14:43:18.102Z,94224.60
2023-03-28T14:45:48.052Z,94231.20
2023-03-28T14:48:15.760Z,94232.80
2023-03-28T14:50:43.650Z,94230.60
2023-03-28T14:53:15.118Z,94227.60
2023-03-28T14:55:45.073Z,94224.00
2023-03-28T14:58:13.631Z,94222.20
2023-03-28T15:00:42.631Z,94228.40
2023-03-28T15:03:11.289Z,94226.60
2023-03-28T15:05:41.547Z,94223.60
2023-03-28T15:08:12.904Z,94222.60
2023-03-28T15:10:42.134Z,94217.20
2023-03-28T15:13:12.285Z,94216.40
2023-03-28T15:15:42.363Z,94211.60
2023-03-28T15:18:11.239Z,94222.80
2023-03-28T15:20:39.491Z,94232.40
2023-03-28T15:23:07.542Z,94223.80
2023-03-28T15:25:35.447Z,94231.60
2023-03-28T15:28:03.733Z,94229.20
2023-03-28T15:30:31.475Z,94221.80
2023-03-28T15:33:04.654Z,94221.80
2023-03-28T15:35:35.120Z,94218.20
2023-03-28T15:38:04.330Z,94215.80
2023-03-28T15:40:33.673Z,94222.60
2023-03-28T15:43:03.539Z,94230.00
2023-03-28T15:45:33.248Z,94230.40
2023-03-28T15:48:04.666Z,94235.00
2023-03-28T15:50:36.120Z,94248.80
2023-03-28T15:53:04.592Z,94260.80
2023-03-28T15:55:33.050Z,94270.40
2023-03-28T15:58:02.405Z,94278.60
2023-03-28T16:00:31.159Z,94282.20
2023-03-28T16:03:01.345Z,94286.40
2023-03-28T16:05:29.119Z,94287.80
2023-03-28T16:07:57.853Z,94290.20
2023-03-28T16:10:27.424Z,94284.80
2023-03-28T16:12:56.719Z,94285.00
2023-03-28T16:15:25.967Z,94288.80
2023-03-28T16:17:59.029Z,94291.60
2023-03-28T16:20:28.040Z,94295.40
2023-03-28T16:22:55.933Z,94288.20
2023-03-28T16:25:24.430Z,94284.00
2023-03-28T16:28:11.007Z,94285.00
2023-03-28T16:30:45.625Z,94278.00
2023-03-28T16:33:14.937Z,94279.60
2023-03-28T16:35:43.729Z,94290.00
2023-03-28T16:38:12.125Z,94300.00
2023-03-28T16:41:03.023Z,94297.60
2023-03-28T16:43:32.098Z,94300.60
2023-03-28T16:46:03.930Z,94302.60
2023-03-28T16:48:32.575Z,94300.80
2023-03-28T16:51:21.964Z,94313.80
2023-03-28T16:53:52.461Z,94314.00
2023-03-28T16:56:26.462Z,94313.60
2023-03-28T16:58:57.747Z,94320.40
2023-03-28T17:01:26.638Z,94317.20
2023-03-28T17:04:07.479Z,94317.60
2023-03-28T17:06:35.842Z,94321.80
2023-03-28T17:09:04.777Z,94322.00
2023-03-28T17:11:33.993Z,94329.60
2023-03-28T17:14:23.145Z,94336.40
2023-03-28T17:16:59.219Z,94337.40
2023-03-28T17:19:29.557Z,94339.00
2023-03-28T17:22:15.393Z,94344.60
2023-03-28T17:24:47.098Z,94343.20
2023-03-28T17:27:17.807Z,94339.80
2023-03-28T17:29:46.806Z,94348.00
2023-03-28T17:32:16.588Z,94348.00
2023-03-28T17:34:46.860Z,94349.80
2023-03-28T17:37:22.550Z,94354.60
2023-03-28T17:39:53.992Z,94352.60
2023-03-28T17:42:22.896Z,94355.80
2023-03-28T17:44:52.433Z,94362.80
2023-03-28T17:47:20.567Z,94356.40
2023-03-28T17:49:48.472Z,94367.80
2023-03-28T17:52:17.781Z,94367.00
2023-03-28T17:54:46.993Z,94373.00
2023-03-28T17:57:17.836Z,94380.80
2023-03-28T17:59:48.544Z,94382.40
2023-03-28T18:02:16.735Z,94389.80
2023-03-28T18:04:46.291Z,94406.80
2023-03-28T18:07:15.888Z,94407.40
2023-03-28T18:09:45.086Z,94408.20
2023-03-28T18:12:14.946Z,94418.40
2023-03-28T18:14:45.055Z,94421.00
2023-03-28T18:17:12.857Z,94419.80
2023-03-28T18:19:42.328Z,94423.00
2023-03-28T18:22:10.917Z,94423.40
2023-03-28T18:24:39.932Z,94420.00
2023-03-28T18:27:07.596Z,94420.20
2023-03-28T18:29:39.039Z,94416.20
2023-03-28T18:32:07.301Z,94411.80
2023-03-28T18:34:36.147Z,94420.40
2023-03-28T18:37:07.446Z,94424.20
2023-03-28T18:39:37.373Z,94438.80
2023-03-28T18:42:06.405Z,94441.00
2023-03-28T18:44:37.020Z,94456.60
2023-03-28T18:47:05.375Z,94475.60
2023-03-28T18:49:34.776Z,94471.00
2023-03-28T18:52:11.307Z,94481.80
2023-03-28T18:54:46.759Z,94489.00
2023-03-28T18:57:15.160Z,94496.20
2023-03-28T18:59:43.746Z,94490.20
2023-03-28T19:02:11.535Z,94492.80
2023-03-28T19:04:40.051Z,94493.60
2023-03-28T19:07:10.223Z,94501.80
2023-03-28T19:09:38.359Z,94501.40
2023-03-28T19:12:06.365Z,94503.60
2023-03-28T19:14:35.577Z,94504.40
2023-03-28T19:17:05.479Z,94506.20
2023-03-28T19:19:44.004Z,94509.60
2023-03-28T19:22:14.119Z,94516.00
2023-03-28T19:24:42.850Z,94516.80
2023-03-28T19:27:13.030Z,94515.00
2023-03-28T19:29:44.111Z,94518.40
2023-03-28T19:32:13.160Z,94524.00
2023-03-28T19:34:41.800Z,94529.00
2023-03-28T19:37:09.597Z,94530.00
2023-03-28T19:39:38.065Z,94535.00
2023-03-28T19:42:06.880Z,94550.20
2023-03-28T19:44:35.862Z,94549.40
2023-03-28T19:47:04.636Z,94547.40
2023-03-28T19:49:34.020Z,94550.80
2023-03-28T19:52:06.441Z,94550.80
2023-03-28T19:54:40.439Z,94547.00
2023-03-28T19:57:08.500Z,94560.00
2023-03-28T19:59:37.248Z,94557.00
2023-03-28T20:02:06.393Z,94559.40
2023-03-28T20:04:34.185Z,94555.20
2023-03-28T20:07:02.194Z,94557.00
2023-03-28T20:09:35.390Z,94556.00
2023-03-28T20:12:04.680Z,94562.20
2023-03-28T20:14:32.382Z,94564.80
2023-03-28T20:17:00.244Z,94573.20
2023-03-28T20:19:28.927Z,94574.20
2023-03-28T20:21:59.970Z,94574.20
2023-03-28T20:27:11.421Z,94572.60
2023-03-28T20:29:41.909Z,94573.00
2023-03-28T20:32:12.386Z,94580.40
2023-03-28T20:34:41.355Z,94576.40
2023-03-28T20:37:11.082Z,94574.80
2023-03-28T20:39:38.741Z,94575.00
2023-03-28T20:42:08.531Z,94580.60
2023-03-28T20:44:41.494Z,94577.60
2023-03-28T20:47:12.487Z,94582.60
2023-03-28T20:49:46.491Z,94581.00
2023-03-28T20:52:15.803Z,94578.40
2023-03-28T20:54:44.114Z,94582.60
2023-03-28T20:57:12.374Z,94582.00
2023-03-28T20:59:42.423Z,94584.00
2023-03-28T21:02:12.498Z,94588.00
2023-03-28T21:04:42.024Z,94590.80
2023-03-28T21:07:11.212Z,94585.40
2023-03-28T21:09:42.245Z,94584.60
2023-03-28T21:12:17.665Z,94589.40
2023-03-28T21:14:45.555Z,94597.40
2023-03-28T21:17:22.166Z,94596.80
2023-03-28T21:19:49.685Z,94595.60
2023-03-28T21:22:21.354Z,94596.20
2023-03-28T21:24:52.101Z,94600.00
2023-03-28T21:27:19.922Z,94594.40
2023-03-28T21:29:48.356Z,94599.00
2023-03-28T21:32:16.854Z,94599.80
2023-03-28T21:34:46.829Z,94595.40
2023-03-28T21:37:15.033Z,94602.20
2023-03-28T21:39:45.165Z,94600.60
2023-03-28T21:42:13.410Z,94608.00
2023-03-28T21:44:42.241Z,94600.60
2023-03-28T21:47:14.292Z,94608.20
2023-03-28T21:49:46.737Z,94606.60
2023-03-28T21:52:14.856Z,94601.60
2023-03-28T21:54:42.363Z,94602.80
2023-03-28T21:57:10.122Z,94599.20
2023-03-28T21:59:40.442Z,94600.80
2023-03-28T22:02:09.252Z,94607.00
2023-03-28T22:04:41.249Z,94603.40
2023-03-28T22:07:10.594Z,94602.20
2023-03-28T22:09:40.213Z,94609.20
2023-03-28T22:12:10.612Z,94611.00
2023-03-28T22:14:39.133Z,94614.40
2023-03-28T22:17:07.621Z,94617.40
2023-03-28T22:19:35.827Z,94616.00
2023-03-28T22:22:05.360Z,94617.20
2023-03-28T22:24:33.853Z,94619.00
2023-03-28T22:27:01.444Z,94624.00
2023-03-28T22:29:29.124Z,94630.20
2023-03-28T22:31:57.469Z,94628.00
2023-03-28T22:34:25.037Z,94629.20
2023-03-28T22:36:54.974Z,94627.20
2023-03-28T22:39:22.594Z,94630.20
2023-03-28T22:41:51.193Z,94627.80
2023-03-28T22:44:21.726Z,94630.60
2023-03-28T22:46:49.658Z,94630.40
2023-03-28T22:49:22.465Z,94634.40
2023-03-28T22:51:50.812Z,94630.00
2023-03-28T22:54:22.806Z,94633.00
2023-03-28T22:56:50.411Z,94632.40
2023-03-28T22:59:17.947Z,94634.80
2023-03-28T23:01:45.718Z,94634.80
2023-03-28T23:04:13.257Z,94627.40
2023-03-28T23:06:41.674Z,94631.00
2023-03-28T23:09:09.165Z,94633.80
2023-03-28T23:11:36.728Z,94633.20
2023-03-28T23:14:04.801Z,94632.40
2023-03-28T23:16:33.154Z,94633.00
2023-03-28T23:19:01.151Z,94634.20
2023-03-28T23:21:29.427Z,94634.60
2023-03-28T23:23:57.060Z,94635.40
2023-03-28T23:26:25.828Z,94639.80
2023-03-28T23:28:53.379Z,94637.00
2023-03-28T23:31:22.388Z,94639.40
2023-03-28T23:33:50.478Z,94640.00
2023-03-28T23:36:21.054Z,94640.80
2023-03-28T23:38:49.897Z,94646.60
2023-03-28T23:41:17.835Z,94647.20
2023-03-28T23:43:45.407Z,94647.60
2023-03-28T23:46:13.120Z,94645.20
2023-03-28T23:48:40.837Z,94646.40
2023-03-28T23:51:09.043Z,94647.40
2023-03-28T23:53:36.632Z,94645.80
2023-03-28T23:56:04.166Z,94642.40
2023-03-28T23:58:31.773Z,94643.60
